Air Navigation Services of Czech Republic
Airport: LKCV Updated:  22.05.2019 02:29:25  UTC
 METAR LKCV 22.05. 02:00 CCA
METAR COR LKCV 220200Z 29013KT 7000 RA BKN007 OVC015 14/14 Q1007 NOSIG RMK GRN GRN=
 TAF LKCV 21.05. 23:00 AAA
TAF AMD LKCV 212300Z 2200/2300 30014KT 9999 BKN030      TEMPO 2200/2300 30014G24KT 7000 -RA BKN010 OVC025      TEMPO 2200/2218 4000 RA BKN005 OVC012      TEMPO 2206/2218 30016G28KT=